createdAt,value
2023-03-06T00:00:35.782Z,32.80
2023-03-06T00:03:04.383Z,32.23
2023-03-06T00:05:33.029Z,32.83
2023-03-06T00:08:04.523Z,32.00
2023-03-06T00:10:33.710Z,33.03
2023-03-06T00:13:03.728Z,32.57
2023-03-06T00:15:33.608Z,31.67
2023-03-06T00:18:04.022Z,32.17
2023-03-06T00:20:32.919Z,32.63
2023-03-06T00:23:01.100Z,32.13
2023-03-06T00:25:29.568Z,31.97
2023-03-06T00:27:57.877Z,31.87
2023-03-06T00:30:26.662Z,31.80
2023-03-06T00:32:56.288Z,32.40
2023-03-06T00:35:24.586Z,32.33
2023-03-06T00:37:52.780Z,32.40
2023-03-06T00:40:21.824Z,32.83
2023-03-06T00:42:50.086Z,32.67
2023-03-06T00:45:20.241Z,33.40
2023-03-06T00:47:48.595Z,33.60
2023-03-06T00:50:19.991Z,34.33
2023-03-06T00:52:48.206Z,35.37
2023-03-06T00:55:17.448Z,34.93
2023-03-06T00:57:45.630Z,34.97
2023-03-06T01:00:15.439Z,36.73
2023-03-06T01:02:43.623Z,37.50
2023-03-06T01:05:14.039Z,37.40
2023-03-06T01:07:43.705Z,37.83
2023-03-06T01:10:13.092Z,37.00
2023-03-06T01:12:41.072Z,36.70
2023-03-06T01:15:10.392Z,36.67
2023-03-06T01:17:38.588Z,38.30
2023-03-06T01:20:07.855Z,37.23
2023-03-06T01:22:36.099Z,36.97
2023-03-06T01:25:09.698Z,37.43
2023-03-06T01:27:37.856Z,36.97
2023-03-06T01:30:06.749Z,37.10
2023-03-06T01:32:35.292Z,35.87
2023-03-06T01:35:03.889Z,36.10
2023-03-06T01:37:31.871Z,34.43
2023-03-06T01:40:00.217Z,34.33
2023-03-06T01:42:32.093Z,33.67
2023-03-06T01:45:02.262Z,33.73
2023-03-06T01:47:30.804Z,32.93
2023-03-06T01:50:00.288Z,33.23
2023-03-06T01:52:31.402Z,32.63
2023-03-06T01:55:03.432Z,33.33
2023-03-06T01:57:36.504Z,33.40
2023-03-06T02:00:09.649Z,32.77
2023-03-06T02:02:38.268Z,33.30
2023-03-06T02:05:09.065Z,33.60
2023-03-06T02:07:38.580Z,32.93
2023-03-06T02:10:07.724Z,32.97
2023-03-06T02:12:37.984Z,32.97
2023-03-06T02:15:07.101Z,33.23
2023-03-06T02:17:36.751Z,32.93
2023-03-06T02:20:12.323Z,32.83
2023-03-06T02:22:47.623Z,32.33
2023-03-06T02:25:32.126Z,32.40
2023-03-06T02:28:03.100Z,32.43
2023-03-06T02:30:31.617Z,32.97
2023-03-06T02:33:00.227Z,32.80
2023-03-06T02:35:30.413Z,33.07
2023-03-06T02:38:00.297Z,32.53
2023-03-06T02:40:30.202Z,32.30
2023-03-06T02:43:00.741Z,34.10
2023-03-06T02:45:34.956Z,33.80
2023-03-06T02:48:03.131Z,33.73
2023-03-06T02:50:31.759Z,33.53
2023-03-06T02:53:00.125Z,33.30
2023-03-06T02:55:29.771Z,33.50
2023-03-06T02:57:57.935Z,32.40
2023-03-06T03:00:26.154Z,32.57
2023-03-06T03:02:54.543Z,32.67
2023-03-06T03:05:22.962Z,34.07
2023-03-06T03:07:51.021Z,33.50
2023-03-06T03:10:21.871Z,34.17
2023-03-06T03:12:51.708Z,33.90
2023-03-06T03:15:19.961Z,33.90
2023-03-06T03:17:48.003Z,34.27
2023-03-06T03:20:18.159Z,34.70
2023-03-06T03:22:49.927Z,35.03
2023-03-06T03:25:20.716Z,34.63
2023-03-06T03:27:50.293Z,34.07
2023-03-06T03:30:19.206Z,35.07
2023-03-06T03:32:47.275Z,34.53
2023-03-06T03:35:15.511Z,34.37
2023-03-06T03:37:43.624Z,34.93
2023-03-06T03:40:12.790Z,34.93
2023-03-06T03:42:41.130Z,33.83
2023-03-06T03:45:11.826Z,34.40
2023-03-06T03:47:40.582Z,34.27
2023-03-06T03:50:10.381Z,34.17
2023-03-06T03:52:38.902Z,34.37
2023-03-06T03:55:08.970Z,34.73
2023-03-06T03:57:39.292Z,34.70
2023-03-06T04:00:09.871Z,34.70
2023-03-06T04:02:39.742Z,33.70
2023-03-06T04:05:08.152Z,33.97
2023-03-06T04:07:36.476Z,33.50
2023-03-06T04:10:04.981Z,33.97
2023-03-06T04:12:33.232Z,34.77
2023-03-06T04:15:01.252Z,34.30
2023-03-06T04:17:29.779Z,34.13
2023-03-06T04:19:59.381Z,34.60
2023-03-06T04:22:28.110Z,34.20
2023-03-06T04:24:59.627Z,34.80
2023-03-06T04:27:27.776Z,35.07
2023-03-06T04:29:56.698Z,34.77
2023-03-06T04:32:25.044Z,34.50
2023-03-06T04:34:53.723Z,35.60
2023-03-06T04:37:24.936Z,34.60
2023-03-06T04:39:53.870Z,34.87
2023-03-06T04:42:21.975Z,34.10
2023-03-06T04:44:50.014Z,34.53
2023-03-06T04:47:19.200Z,35.13
2023-03-06T04:49:47.836Z,34.87
2023-03-06T04:52:18.808Z,34.73
2023-03-06T04:54:48.442Z,34.00
2023-03-06T04:57:16.718Z,36.00
2023-03-06T04:59:44.855Z,34.43
2023-03-06T05:02:12.992Z,34.10
2023-03-06T05:04:43.074Z,33.83
2023-03-06T05:07:11.290Z,34.33
2023-03-06T05:09:40.313Z,34.50
2023-03-06T05:12:10.300Z,33.57
2023-03-06T05:14:38.490Z,36.03
2023-03-06T05:17:06.804Z,34.87
2023-03-06T05:19:35.184Z,35.73
2023-03-06T05:22:03.305Z,34.60
2023-03-06T05:24:31.509Z,33.77
2023-03-06T05:26:59.642Z,34.77
2023-03-06T05:29:29.318Z,34.80
2023-03-06T05:31:57.590Z,34.40
2023-03-06T05:34:25.958Z,33.53
2023-03-06T05:36:54.638Z,33.33
2023-03-06T05:39:22.858Z,34.40
2023-03-06T05:41:53.920Z,34.80
2023-03-06T05:44:23.981Z,33.97
2023-03-06T05:46:54.145Z,34.70
2023-03-06T05:49:22.326Z,33.87
2023-03-06T05:51:50.567Z,33.73
2023-03-06T05:54:18.780Z,34.90
2023-03-06T05:56:46.914Z,34.03
2023-03-06T05:59:15.747Z,34.53
2023-03-06T06:01:44.219Z,34.57
2023-03-06T06:04:13.848Z,33.33
2023-03-06T06:06:42.055Z,32.07
2023-03-06T06:09:12.829Z,31.40
2023-03-06T06:11:41.947Z,30.93
2023-03-06T06:14:10.030Z,30.10
2023-03-06T06:16:38.217Z,30.20
2023-03-06T06:19:06.404Z,30.07
2023-03-06T06:21:35.987Z,30.50
2023-03-06T06:24:04.170Z,29.87
2023-03-06T06:26:32.576Z,29.37
2023-03-06T06:29:02.363Z,29.43
2023-03-06T06:31:30.498Z,29.70
2023-03-06T06:33:58.667Z,30.30
2023-03-06T06:36:26.891Z,30.13
2023-03-06T06:38:56.399Z,30.03
2023-03-06T06:41:42.623Z,29.73
2023-03-06T06:44:16.001Z,29.50
2023-03-06T06:49:34.864Z,29.83
2023-03-06T06:52:03.123Z,29.33
2023-03-06T06:54:33.873Z,29.63
2023-03-06T06:57:01.963Z,30.80
2023-03-06T06:59:31.701Z,32.53
2023-03-06T07:02:00.149Z,31.53
2023-03-06T07:04:28.605Z,32.50
2023-03-06T07:06:57.036Z,31.87
2023-03-06T07:09:25.320Z,32.20
2023-03-06T07:11:54.902Z,30.50
2023-03-06T07:14:23.057Z,30.10
2023-03-06T07:16:51.184Z,30.87
2023-03-06T07:19:21.990Z,30.97
2023-03-06T07:21:49.956Z,30.60
2023-03-06T07:24:18.178Z,31.40
2023-03-06T07:26:48.171Z,30.83
2023-03-06T07:29:17.750Z,31.03
2023-03-06T07:31:46.251Z,30.10
2023-03-06T07:34:15.778Z,31.17
2023-03-06T07:36:43.907Z,31.73
2023-03-06T07:39:11.953Z,30.83
2023-03-06T07:41:40.125Z,30.30
2023-03-06T07:44:08.506Z,31.07
2023-03-06T07:46:38.193Z,31.07
2023-03-06T07:49:06.861Z,30.93
2023-03-06T07:51:34.886Z,31.30
2023-03-06T07:54:02.894Z,31.10
2023-03-06T07:56:31.089Z,31.37
2023-03-06T07:58:59.095Z,31.13
2023-03-06T08:01:27.395Z,32.13
2023-03-06T08:03:59.596Z,30.97
2023-03-06T08:06:28.760Z,30.40
2023-03-06T08:08:57.107Z,30.67
2023-03-06T08:11:27.021Z,29.93
2023-03-06T08:13:55.552Z,29.33
2023-03-06T08:16:26.192Z,30.03
2023-03-06T08:18:56.659Z,30.53
2023-03-06T08:21:26.745Z,29.77
2023-03-06T08:23:54.954Z,30.60
2023-03-06T08:26:25.730Z,29.70
2023-03-06T08:28:54.991Z,29.90
2023-03-06T08:31:27.965Z,30.47
2023-03-06T08:33:59.255Z,31.00
2023-03-06T08:36:27.723Z,31.00
2023-03-06T08:38:56.247Z,30.63
2023-03-06T08:41:24.549Z,30.73
2023-03-06T08:43:53.157Z,30.90
2023-03-06T08:46:25.694Z,30.90
2023-03-06T08:48:54.268Z,30.20
2023-03-06T08:51:24.425Z,29.70
2023-03-06T08:53:53.626Z,29.03
2023-03-06T08:56:23.707Z,29.80
2023-03-06T08:58:52.166Z,28.80
2023-03-06T09:01:22.401Z,29.53
2023-03-06T09:03:50.637Z,29.77
2023-03-06T09:06:21.510Z,29.47
2023-03-06T09:08:52.229Z,30.33
2023-03-06T09:11:22.538Z,31.27
2023-03-06T09:13:50.900Z,31.97
2023-03-06T09:16:22.012Z,32.87
2023-03-06T09:18:52.816Z,34.53
2023-03-06T09:21:25.374Z,33.93
2023-03-06T09:23:55.672Z,35.00
2023-03-06T09:26:32.847Z,34.27
2023-03-06T09:29:08.248Z,34.90
2023-03-06T09:31:36.811Z,35.40
2023-03-06T09:34:04.870Z,35.50
2023-03-06T09:36:45.670Z,35.87
2023-03-06T09:39:23.434Z,35.23
2023-03-06T09:41:52.006Z,35.47
2023-03-06T09:44:26.083Z,36.13
2023-03-06T09:47:23.151Z,35.63
2023-03-06T09:50:04.965Z,36.23
2023-03-06T09:52:37.564Z,35.60
2023-03-06T09:55:17.058Z,34.53
2023-03-06T09:57:54.545Z,33.63
2023-03-06T10:00:29.606Z,32.57
2023-03-06T10:03:08.614Z,33.07
2023-03-06T10:05:44.274Z,32.73
2023-03-06T10:08:22.844Z,32.63
2023-03-06T10:11:05.267Z,32.53
2023-03-06T10:13:39.593Z,33.63
2023-03-06T10:16:19.912Z,32.90
2023-03-06T10:18:48.060Z,34.13
2023-03-06T10:21:41.074Z,34.13
2023-03-06T10:24:23.447Z,35.27
2023-03-06T10:26:57.795Z,34.63
2023-03-06T10:29:39.282Z,35.37
2023-03-06T10:32:21.823Z,35.33
2023-03-06T10:34:51.063Z,34.93
2023-03-06T10:37:23.641Z,35.30
2023-03-06T10:39:56.504Z,35.17
2023-03-06T10:42:28.845Z,35.57
2023-03-06T10:45:12.463Z,34.30
2023-03-06T10:47:41.236Z,34.90
2023-03-06T10:50:24.420Z,35.70
2023-03-06T10:53:02.068Z,34.70
2023-03-06T10:55:32.737Z,35.53
2023-03-06T10:58:18.851Z,33.23
2023-03-06T11:00:47.402Z,34.10
2023-03-06T11:03:21.529Z,33.03
2023-03-06T11:06:10.471Z,33.77
2023-03-06T11:08:42.258Z,33.00
2023-03-06T11:11:13.913Z,31.97
2023-03-06T11:13:44.854Z,30.60
2023-03-06T11:16:31.515Z,31.00
2023-03-06T11:19:01.742Z,28.87
2023-03-06T11:21:32.078Z,29.83
2023-03-06T11:24:05.324Z,30.00
2023-03-06T11:26:39.470Z,20.83
2023-03-06T11:29:22.938Z,11.93
2023-03-06T11:31:57.482Z,7.32
2023-03-06T11:34:39.252Z,5.97
2023-03-06T11:37:12.590Z,6.20
2023-03-06T11:39:45.816Z,4.57
2023-03-06T11:42:19.846Z,7.35
2023-03-06T11:44:57.612Z,6.10
2023-03-06T11:47:31.301Z,7.03
2023-03-06T11:50:14.771Z,8.10
2023-03-06T11:52:49.874Z,5.55
2023-03-06T11:55:22.378Z,5.37
2023-03-06T11:58:02.222Z,6.20
2023-03-06T12:00:48.074Z,6.63
2023-03-06T12:03:45.354Z,5.15
2023-03-06T12:06:25.691Z,6.32
2023-03-06T12:09:01.923Z,5.97
2023-03-06T12:11:39.156Z,12.77
2023-03-06T12:14:35.405Z,5.57
2023-03-06T12:17:17.264Z,7.75
2023-03-06T12:20:00.334Z,5.90
2023-03-06T12:22:42.174Z,7.45
2023-03-06T12:25:26.949Z,5.88
2023-03-06T12:28:12.307Z,6.88
2023-03-06T12:31:18.870Z,7.32
2023-03-06T12:34:02.904Z,10.63
2023-03-06T12:36:50.285Z,7.90
2023-03-06T12:39:28.527Z,8.77
2023-03-06T12:42:17.882Z,6.70
2023-03-06T12:45:12.133Z,7.75
2023-03-06T12:47:45.508Z,7.30
2023-03-06T12:50:20.335Z,7.63
2023-03-06T12:52:49.580Z,8.80
2023-03-06T12:55:24.336Z,4.40
2023-03-06T12:57:56.502Z,7.93
2023-03-06T13:01:04.213Z,4.65
2023-03-06T13:03:45.019Z,5.38
2023-03-06T13:06:49.728Z,5.53
2023-03-06T13:09:30.258Z,6.60
2023-03-06T13:12:21.292Z,8.60
2023-03-06T13:14:58.407Z,6.22
2023-03-06T13:17:40.364Z,6.75
2023-03-06T13:20:35.239Z,6.93
2023-03-06T13:23:52.237Z,6.25
2023-03-06T13:26:58.245Z,7.57
2023-03-06T13:30:04.030Z,7.53
2023-03-06T13:32:34.706Z,7.30
2023-03-06T13:35:03.320Z,5.53
2023-03-06T13:37:39.719Z,7.18
2023-03-06T13:40:32.855Z,7.03
2023-03-06T13:43:25.700Z,8.82
2023-03-06T13:45:54.012Z,9.50
2023-03-06T13:48:47.635Z,11.30
2023-03-06T13:51:23.547Z,11.13
2023-03-06T13:54:30.321Z,7.50
2023-03-06T13:57:27.639Z,12.40
2023-03-06T14:00:22.782Z,12.18
2023-03-06T14:03:30.561Z,10.82
2023-03-06T14:05:59.113Z,9.00
2023-03-06T14:08:30.310Z,9.32
2023-03-06T14:11:04.888Z,10.45
2023-03-06T14:13:47.101Z,15.07
2023-03-06T14:16:23.888Z,11.73
2023-03-06T14:18:56.932Z,12.97
2023-03-06T14:21:31.159Z,14.25
2023-03-06T14:24:00.842Z,12.02
2023-03-06T14:26:32.972Z,11.50
2023-03-06T14:29:04.072Z,10.90
2023-03-06T14:31:34.428Z,10.50
2023-03-06T14:34:05.239Z,9.67
2023-03-06T14:36:37.327Z,6.23
2023-03-06T14:39:12.182Z,8.23
2023-03-06T14:41:42.433Z,5.47
2023-03-06T14:44:18.096Z,4.57
2023-03-06T14:46:46.876Z,6.65
2023-03-06T14:49:18.027Z,8.30
2023-03-06T14:51:48.827Z,8.47
2023-03-06T14:54:20.172Z,8.43
2023-03-06T14:56:53.163Z,7.63
2023-03-06T14:59:26.929Z,7.70
2023-03-06T15:02:01.903Z,5.80
2023-03-06T15:04:36.671Z,7.53
2023-03-06T15:07:08.733Z,4.20
2023-03-06T15:09:38.892Z,5.33
2023-03-06T15:12:08.986Z,5.63
2023-03-06T15:14:40.753Z,5.27
2023-03-06T15:17:26.916Z,4.03
2023-03-06T15:19:56.868Z,5.37
2023-03-06T15:22:31.819Z,6.10
2023-03-06T15:25:26.706Z,5.53
2023-03-06T15:27:57.059Z,7.77
2023-03-06T15:30:30.760Z,9.47
2023-03-06T15:33:21.174Z,8.17
2023-03-06T15:35:55.236Z,7.50
2023-03-06T15:38:26.964Z,10.10
2023-03-06T15:40:57.155Z,8.37
2023-03-06T15:43:30.008Z,10.27
2023-03-06T15:46:02.268Z,8.37
2023-03-06T15:48:30.633Z,7.83
2023-03-06T15:51:03.678Z,9.97
2023-03-06T15:53:32.339Z,10.27
2023-03-06T15:56:01.260Z,9.30
2023-03-06T15:58:32.687Z,9.47
2023-03-06T16:01:04.029Z,9.33
2023-03-06T16:03:32.571Z,8.80
2023-03-06T16:06:01.626Z,9.70
2023-03-06T16:08:30.135Z,8.97
2023-03-06T16:10:59.036Z,9.30
2023-03-06T16:13:29.916Z,12.07
2023-03-06T16:15:58.430Z,12.33
2023-03-06T16:18:31.151Z,13.90
2023-03-06T16:20:59.349Z,11.40
2023-03-06T16:23:27.851Z,13.90
2023-03-06T16:25:59.056Z,12.93
2023-03-06T16:28:28.086Z,17.57
2023-03-06T16:30:56.708Z,15.20
2023-03-06T16:33:25.910Z,18.87
2023-03-06T16:35:56.330Z,19.17
2023-03-06T16:38:24.623Z,22.30
2023-03-06T16:40:53.180Z,27.10
2023-03-06T16:43:26.424Z,31.13
2023-03-06T16:45:55.009Z,31.97
2023-03-06T16:48:23.349Z,34.67
2023-03-06T16:50:52.100Z,36.60
2023-03-06T16:53:22.799Z,37.50
2023-03-06T16:55:52.056Z,39.23
2023-03-06T16:58:20.184Z,39.10
2023-03-06T17:00:48.277Z,39.83
2023-03-06T17:03:17.887Z,40.07
2023-03-06T17:05:46.934Z,39.97
2023-03-06T17:08:15.211Z,39.10
2023-03-06T17:10:45.615Z,39.07
2023-03-06T17:13:14.023Z,40.30
2023-03-06T17:15:42.480Z,41.97
2023-03-06T17:18:10.830Z,39.87
2023-03-06T17:20:39.530Z,39.27
2023-03-06T17:23:07.991Z,39.93
2023-03-06T17:25:38.518Z,39.53
2023-03-06T17:28:08.253Z,40.00
2023-03-06T17:30:36.682Z,39.40
2023-03-06T17:33:04.873Z,39.97
2023-03-06T17:35:38.061Z,39.30
2023-03-06T17:38:06.184Z,39.93
2023-03-06T17:40:35.481Z,40.93
2023-03-06T17:43:04.201Z,40.10
2023-03-06T17:45:36.592Z,39.97
2023-03-06T17:48:05.134Z,40.20
2023-03-06T17:50:33.647Z,40.73
2023-03-06T17:53:01.914Z,41.07
2023-03-06T17:55:30.196Z,40.30
2023-03-06T17:57:58.384Z,39.77
2023-03-06T18:00:30.432Z,41.37
2023-03-06T18:03:00.848Z,40.17
2023-03-06T18:05:29.052Z,41.23
2023-03-06T18:07:57.485Z,39.83
2023-03-06T18:10:25.799Z,40.13
2023-03-06T18:12:57.000Z,40.03
2023-03-06T18:15:25.292Z,39.87
2023-03-06T18:17:54.774Z,41.47
2023-03-06T18:20:30.622Z,41.47
2023-03-06T18:23:11.369Z,40.80
2023-03-06T18:25:39.334Z,40.40
2023-03-06T18:28:07.657Z,40.10
2023-03-06T18:30:36.705Z,40.37
2023-03-06T18:33:05.856Z,39.77
2023-03-06T18:35:51.032Z,40.23
2023-03-06T18:39:44.849Z,39.37
2023-03-06T18:42:44.608Z,38.97
2023-03-06T18:47:06.699Z,39.97
2023-03-06T18:49:39.913Z,40.77
2023-03-06T18:52:43.119Z,40.10
2023-03-06T18:58:35.945Z,40.53
2023-03-06T19:01:07.995Z,39.90
2023-03-06T19:03:36.708Z,39.17
2023-03-06T19:06:10.248Z,38.97
2023-03-06T19:08:41.319Z,39.20
2023-03-06T19:11:12.059Z,44.37
2023-03-06T19:13:41.101Z,37.83
2023-03-06T19:16:09.906Z,37.20
2023-03-06T19:18:39.140Z,37.83
2023-03-06T19:21:11.646Z,35.50
2023-03-06T19:23:42.437Z,34.80
2023-03-06T19:26:11.017Z,33.53
2023-03-06T19:28:41.196Z,34.87
2023-03-06T19:31:11.276Z,33.53
2023-03-06T19:33:40.148Z,33.80
2023-03-06T19:36:11.016Z,35.50
2023-03-06T19:38:59.281Z,34.23
2023-03-06T19:41:27.933Z,35.47
2023-03-06T19:44:00.501Z,34.97
2023-03-06T19:46:29.691Z,32.60
2023-03-06T19:48:59.300Z,33.83
2023-03-06T19:51:29.208Z,32.20
2023-03-06T19:53:59.259Z,31.03
2023-03-06T19:56:55.553Z,30.43
2023-03-06T19:59:23.566Z,30.23
2023-03-06T20:02:00.766Z,29.67
2023-03-06T20:04:32.368Z,29.30
2023-03-06T20:07:00.853Z,28.77
2023-03-06T20:09:32.335Z,28.87
2023-03-06T20:12:00.582Z,29.37
2023-03-06T20:14:33.748Z,28.40
2023-03-06T20:17:01.808Z,28.10
2023-03-06T20:19:30.893Z,27.50
2023-03-06T20:21:59.300Z,28.17
2023-03-06T20:24:27.791Z,28.77
2023-03-06T20:27:02.451Z,28.23
2023-03-06T20:29:31.402Z,28.13
2023-03-06T20:32:02.102Z,27.53
2023-03-06T20:34:30.791Z,27.90
2023-03-06T20:36:59.274Z,27.60
2023-03-06T20:39:28.197Z,28.23
2023-03-06T20:42:00.672Z,27.97
2023-03-06T20:44:30.029Z,28.40
2023-03-06T20:46:58.423Z,27.67
2023-03-06T20:49:28.666Z,27.63
2023-03-06T20:51:57.857Z,27.60
2023-03-06T20:54:28.209Z,27.50
2023-03-06T20:56:58.680Z,27.63
2023-03-06T20:59:28.925Z,27.23
2023-03-06T21:01:57.704Z,26.97
2023-03-06T21:04:28.208Z,27.13
2023-03-06T21:06:57.265Z,27.00
2023-03-06T21:09:25.680Z,27.00
2023-03-06T21:11:58.901Z,26.70
2023-03-06T21:14:29.599Z,27.10
2023-03-06T21:16:58.543Z,26.40
2023-03-06T21:19:26.891Z,26.50
2023-03-06T21:21:55.624Z,26.70
2023-03-06T21:24:26.948Z,25.67
2023-03-06T21:26:55.218Z,26.03
2023-03-06T21:29:27.601Z,25.37
2023-03-06T21:32:02.045Z,26.10
2023-03-06T21:34:33.772Z,25.20
2023-03-06T21:37:03.927Z,26.03
2023-03-06T21:39:38.798Z,25.60
2023-03-06T21:42:10.263Z,25.47
2023-03-06T21:44:40.333Z,25.30
2023-03-06T21:47:08.759Z,25.53
2023-03-06T21:49:37.349Z,25.77
2023-03-06T21:52:08.942Z,25.00
2023-03-06T21:54:37.862Z,25.43
2023-03-06T21:57:07.000Z,26.10
2023-03-06T21:59:35.142Z,25.17
2023-03-06T22:02:05.575Z,25.07
2023-03-06T22:04:34.509Z,25.53
2023-03-06T22:07:02.688Z,26.37
2023-03-06T22:09:31.078Z,25.57
2023-03-06T22:11:59.224Z,26.43
2023-03-06T22:14:27.422Z,26.20
2023-03-06T22:17:06.418Z,26.40
2023-03-06T22:19:34.886Z,26.60
2023-03-06T22:22:03.846Z,26.87
2023-03-06T22:24:33.710Z,27.17
2023-03-06T22:27:01.882Z,27.70
2023-03-06T22:29:30.199Z,26.73
2023-03-06T22:31:58.471Z,26.47
2023-03-06T22:34:28.554Z,26.67
2023-03-06T22:36:56.746Z,27.03
2023-03-06T22:39:25.660Z,26.53
2023-03-06T22:41:56.769Z,27.47
2023-03-06T22:44:25.112Z,27.47
2023-03-06T22:46:53.618Z,27.87
2023-03-06T22:49:22.301Z,28.00
2023-03-06T22:51:51.961Z,27.87
2023-03-06T22:54:20.217Z,28.20
2023-03-06T22:56:48.316Z,28.60
2023-03-06T22:59:16.728Z,28.37
2023-03-06T23:01:44.918Z,29.07
2023-03-06T23:04:13.315Z,29.23
2023-03-06T23:06:42.975Z,28.57
2023-03-06T23:09:23.559Z,29.40
2023-03-06T23:11:51.782Z,29.07
2023-03-06T23:14:20.996Z,29.30
2023-03-06T23:16:49.284Z,29.70
2023-03-06T23:19:17.809Z,29.53
2023-03-06T23:21:46.103Z,30.17
2023-03-06T23:24:14.481Z,30.37
2023-03-06T23:26:44.560Z,30.23
2023-03-06T23:29:12.742Z,31.40
2023-03-06T23:31:41.916Z,30.27
2023-03-06T23:34:11.717Z,30.23
2023-03-06T23:36:39.995Z,31.80
2023-03-06T23:39:08.274Z,29.83
2023-03-06T23:41:37.197Z,30.60
2023-03-06T23:44:07.337Z,30.67
2023-03-06T23:46:35.840Z,30.60
2023-03-06T23:49:04.634Z,31.27
2023-03-06T23:51:32.909Z,30.57
2023-03-06T23:54:02.173Z,31.70
2023-03-06T23:56:30.485Z,31.10
2023-03-06T23:58:58.789Z,31.27
